sensor_id;sensor_type;location;lat;lon;timestamp;P1;durP1;ratioP1;P2;durP2;ratioP2
12385;SDS011;6257;57.634;18.310;2023-07-02T00:02:14;3.13;;;2.83;;
12385;SDS011;6257;57.634;18.310;2023-07-02T00:04:42;3.60;;;2.90;;
12385;SDS011;6257;57.634;18.310;2023-07-02T00:07:09;4.80;;;3.17;;
12385;SDS011;6257;57.634;18.310;2023-07-02T00:09:38;4.43;;;3.40;;
12385;SDS011;6257;57.634;18.310;2023-07-02T00:12:05;3.50;;;3.07;;
12385;SDS011;6257;57.634;18.310;2023-07-02T00:14:33;6.20;;;3.27;;
12385;SDS011;6257;57.634;18.310;2023-07-02T00:17:00;3.40;;;2.67;;
12385;SDS011;6257;57.634;18.310;2023-07-02T00:19:27;4.07;;;2.87;;
12385;SDS011;6257;57.634;18.310;2023-07-02T00:21:54;3.53;;;3.00;;
12385;SDS011;6257;57.634;18.310;2023-07-02T00:24:21;3.70;;;2.87;;
12385;SDS011;6257;57.634;18.310;2023-07-02T00:26:50;3.60;;;2.97;;
12385;SDS011;6257;57.634;18.310;2023-07-02T00:29:17;6.73;;;3.17;;
12385;SDS011;6257;57.634;18.310;2023-07-02T00:31:44;4.80;;;3.03;;
12385;SDS011;6257;57.634;18.310;2023-07-02T00:34:11;4.70;;;3.17;;
12385;SDS011;6257;57.634;18.310;2023-07-02T00:36:38;4.20;;;3.00;;
12385;SDS011;6257;57.634;18.310;2023-07-02T00:39:06;4.00;;;2.90;;
12385;SDS011;6257;57.634;18.310;2023-07-02T00:41:33;5.17;;;3.20;;
12385;SDS011;6257;57.634;18.310;2023-07-02T00:44:02;3.30;;;2.60;;
12385;SDS011;6257;57.634;18.310;2023-07-02T00:46:29;6.40;;;2.87;;
12385;SDS011;6257;57.634;18.310;2023-07-02T00:48:57;4.40;;;3.03;;
12385;SDS011;6257;57.634;18.310;2023-07-02T00:51:27;5.27;;;2.80;;
12385;SDS011;6257;57.634;18.310;2023-07-02T00:53:55;3.57;;;2.57;;
12385;SDS011;6257;57.634;18.310;2023-07-02T00:56:24;3.10;;;2.80;;
12385;SDS011;6257;57.634;18.310;2023-07-02T00:58:52;3.50;;;2.30;;
12385;SDS011;6257;57.634;18.310;2023-07-02T01:01:25;3.33;;;2.10;;
12385;SDS011;6257;57.634;18.310;2023-07-02T01:03:56;3.87;;;2.10;;
12385;SDS011;6257;57.634;18.310;2023-07-02T01:06:25;2.23;;;2.03;;
12385;SDS011;6257;57.634;18.310;2023-07-02T01:08:54;3.07;;;2.17;;
12385;SDS011;6257;57.634;18.310;2023-07-02T01:11:22;3.23;;;2.47;;
12385;SDS011;6257;57.634;18.310;2023-07-02T01:13:53;2.73;;;2.30;;
12385;SDS011;6257;57.634;18.310;2023-07-02T01:16:25;2.40;;;2.20;;
12385;SDS011;6257;57.634;18.310;2023-07-02T01:18:52;4.13;;;2.57;;
12385;SDS011;6257;57.634;18.310;2023-07-02T01:21:22;4.23;;;2.30;;
12385;SDS011;6257;57.634;18.310;2023-07-02T01:23:51;2.60;;;1.97;;
12385;SDS011;6257;57.634;18.310;2023-07-02T01:26:19;2.77;;;2.33;;
12385;SDS011;6257;57.634;18.310;2023-07-02T01:28:46;4.50;;;2.17;;
12385;SDS011;6257;57.634;18.310;2023-07-02T01:31:13;2.30;;;2.10;;
12385;SDS011;6257;57.634;18.310;2023-07-02T01:33:40;3.70;;;2.20;;
12385;SDS011;6257;57.634;18.310;2023-07-02T01:36:07;4.00;;;2.37;;
12385;SDS011;6257;57.634;18.310;2023-07-02T01:38:36;2.40;;;2.10;;
12385;SDS011;6257;57.634;18.310;2023-07-02T01:41:03;2.97;;;2.30;;
12385;SDS011;6257;57.634;18.310;2023-07-02T01:43:30;4.10;;;2.30;;
12385;SDS011;6257;57.634;18.310;2023-07-02T01:45:57;2.77;;;2.10;;
12385;SDS011;6257;57.634;18.310;2023-07-02T01:48:26;3.07;;;2.10;;
12385;SDS011;6257;57.634;18.310;2023-07-02T01:50:53;3.10;;;2.50;;
12385;SDS011;6257;57.634;18.310;2023-07-02T01:53:21;2.60;;;1.97;;
12385;SDS011;6257;57.634;18.310;2023-07-02T01:55:49;3.03;;;2.00;;
12385;SDS011;6257;57.634;18.310;2023-07-02T01:58:16;2.30;;;2.10;;
12385;SDS011;6257;57.634;18.310;2023-07-02T02:00:43;2.30;;;1.97;;
12385;SDS011;6257;57.634;18.310;2023-07-02T02:03:10;1.83;;;1.70;;
12385;SDS011;6257;57.634;18.310;2023-07-02T02:05:37;3.13;;;2.00;;
12385;SDS011;6257;57.634;18.310;2023-07-02T02:08:04;3.67;;;2.33;;
12385;SDS011;6257;57.634;18.310;2023-07-02T02:10:31;2.67;;;2.00;;
12385;SDS011;6257;57.634;18.310;2023-07-02T02:13:00;2.40;;;1.93;;
12385;SDS011;6257;57.634;18.310;2023-07-02T02:15:27;2.50;;;2.30;;
12385;SDS011;6257;57.634;18.310;2023-07-02T02:17:54;4.03;;;2.20;;
12385;SDS011;6257;57.634;18.310;2023-07-02T02:20:21;5.07;;;1.80;;
12385;SDS011;6257;57.634;18.310;2023-07-02T02:22:48;1.90;;;1.80;;
12385;SDS011;6257;57.634;18.310;2023-07-02T02:25:15;3.00;;;2.17;;
12385;SDS011;6257;57.634;18.310;2023-07-02T02:27:42;2.47;;;1.80;;
12385;SDS011;6257;57.634;18.310;2023-07-02T02:30:11;2.13;;;1.77;;
12385;SDS011;6257;57.634;18.310;2023-07-02T02:32:38;3.47;;;1.80;;
12385;SDS011;6257;57.634;18.310;2023-07-02T02:35:06;2.63;;;2.17;;
12385;SDS011;6257;57.634;18.310;2023-07-02T02:37:34;2.73;;;1.83;;
12385;SDS011;6257;57.634;18.310;2023-07-02T02:40:02;3.23;;;2.00;;
12385;SDS011;6257;57.634;18.310;2023-07-02T02:42:30;2.13;;;1.93;;
12385;SDS011;6257;57.634;18.310;2023-07-02T02:44:57;1.93;;;1.70;;
12385;SDS011;6257;57.634;18.310;2023-07-02T02:47:26;3.03;;;1.83;;
12385;SDS011;6257;57.634;18.310;2023-07-02T02:49:53;2.00;;;1.80;;
12385;SDS011;6257;57.634;18.310;2023-07-02T02:52:20;2.10;;;1.90;;
12385;SDS011;6257;57.634;18.310;2023-07-02T02:54:47;2.03;;;1.60;;
12385;SDS011;6257;57.634;18.310;2023-07-02T02:57:18;1.73;;;1.60;;
12385;SDS011;6257;57.634;18.310;2023-07-02T02:59:45;2.23;;;1.77;;
12385;SDS011;6257;57.634;18.310;2023-07-02T03:02:12;2.13;;;1.70;;
12385;SDS011;6257;57.634;18.310;2023-07-02T03:04:40;2.40;;;1.70;;
12385;SDS011;6257;57.634;18.310;2023-07-02T03:07:09;3.33;;;1.67;;
12385;SDS011;6257;57.634;18.310;2023-07-02T03:09:36;2.47;;;1.70;;
12385;SDS011;6257;57.634;18.310;2023-07-02T03:12:03;3.40;;;1.87;;
12385;SDS011;6257;57.634;18.310;2023-07-02T03:14:31;2.33;;;2.00;;
12385;SDS011;6257;57.634;18.310;2023-07-02T03:16:58;2.53;;;2.00;;
12385;SDS011;6257;57.634;18.310;2023-07-02T03:19:25;3.00;;;2.13;;
12385;SDS011;6257;57.634;18.310;2023-07-02T03:21:54;2.77;;;2.57;;
12385;SDS011;6257;57.634;18.310;2023-07-02T03:24:21;2.67;;;2.47;;
12385;SDS011;6257;57.634;18.310;2023-07-02T03:26:48;3.10;;;2.90;;
12385;SDS011;6257;57.634;18.310;2023-07-02T03:29:15;4.27;;;2.70;;
12385;SDS011;6257;57.634;18.310;2023-07-02T03:31:44;3.10;;;2.80;;
12385;SDS011;6257;57.634;18.310;2023-07-02T03:34:11;3.63;;;3.33;;
12385;SDS011;6257;57.634;18.310;2023-07-02T03:36:38;3.70;;;3.40;;
12385;SDS011;6257;57.634;18.310;2023-07-02T03:39:07;3.70;;;3.40;;
12385;SDS011;6257;57.634;18.310;2023-07-02T03:41:34;3.87;;;3.50;;
12385;SDS011;6257;57.634;18.310;2023-07-02T03:44:01;5.00;;;4.10;;
12385;SDS011;6257;57.634;18.310;2023-07-02T03:46:29;4.80;;;4.40;;
12385;SDS011;6257;57.634;18.310;2023-07-02T03:48:56;4.47;;;4.13;;
12385;SDS011;6257;57.634;18.310;2023-07-02T03:51:23;4.83;;;4.33;;
12385;SDS011;6257;57.634;18.310;2023-07-02T03:53:51;4.80;;;4.40;;
12385;SDS011;6257;57.634;18.310;2023-07-02T03:56:19;4.67;;;4.27;;
12385;SDS011;6257;57.634;18.310;2023-07-02T03:58:46;6.73;;;4.23;;
12385;SDS011;6257;57.634;18.310;2023-07-02T04:01:13;4.97;;;4.57;;
12385;SDS011;6257;57.634;18.310;2023-07-02T04:03:41;4.63;;;4.23;;
12385;SDS011;6257;57.634;18.310;2023-07-02T04:06:13;6.77;;;4.30;;
12385;SDS011;6257;57.634;18.310;2023-07-02T04:08:40;3.80;;;3.50;;
12385;SDS011;6257;57.634;18.310;2023-07-02T04:11:08;5.70;;;3.63;;
12385;SDS011;6257;57.634;18.310;2023-07-02T04:13:37;3.87;;;3.33;;
12385;SDS011;6257;57.634;18.310;2023-07-02T04:16:04;3.40;;;3.10;;
12385;SDS011;6257;57.634;18.310;2023-07-02T04:18:32;3.60;;;2.80;;
12385;SDS011;6257;57.634;18.310;2023-07-02T04:20:59;2.97;;;2.60;;
12385;SDS011;6257;57.634;18.310;2023-07-02T04:23:26;3.00;;;2.70;;
12385;SDS011;6257;57.634;18.310;2023-07-02T04:25:53;2.70;;;2.50;;
12385;SDS011;6257;57.634;18.310;2023-07-02T04:28:20;3.07;;;2.67;;
12385;SDS011;6257;57.634;18.310;2023-07-02T04:30:49;2.77;;;2.57;;
12385;SDS011;6257;57.634;18.310;2023-07-02T04:33:18;4.90;;;2.90;;
12385;SDS011;6257;57.634;18.310;2023-07-02T04:35:45;3.07;;;2.77;;
12385;SDS011;6257;57.634;18.310;2023-07-02T04:38:12;3.77;;;3.10;;
12385;SDS011;6257;57.634;18.310;2023-07-02T04:40:39;4.97;;;3.17;;
12385;SDS011;6257;57.634;18.310;2023-07-02T04:43:09;3.60;;;2.43;;
12385;SDS011;6257;57.634;18.310;2023-07-02T04:45:37;3.97;;;2.57;;
12385;SDS011;6257;57.634;18.310;2023-07-02T04:48:06;2.43;;;2.23;;
12385;SDS011;6257;57.634;18.310;2023-07-02T04:50:33;3.73;;;2.67;;
12385;SDS011;6257;57.634;18.310;2023-07-02T04:53:01;2.83;;;2.50;;
12385;SDS011;6257;57.634;18.310;2023-07-02T04:55:28;2.50;;;2.30;;
12385;SDS011;6257;57.634;18.310;2023-07-02T04:57:55;2.87;;;2.50;;
12385;SDS011;6257;57.634;18.310;2023-07-02T05:00:22;3.60;;;2.27;;
12385;SDS011;6257;57.634;18.310;2023-07-02T05:02:49;2.87;;;2.20;;
12385;SDS011;6257;57.634;18.310;2023-07-02T05:05:17;2.77;;;2.57;;
12385;SDS011;6257;57.634;18.310;2023-07-02T05:07:45;3.10;;;2.60;;
12385;SDS011;6257;57.634;18.310;2023-07-02T05:10:12;2.60;;;2.40;;
12385;SDS011;6257;57.634;18.310;2023-07-02T05:12:39;3.40;;;2.40;;
12385;SDS011;6257;57.634;18.310;2023-07-02T05:15:06;4.03;;;2.50;;
12385;SDS011;6257;57.634;18.310;2023-07-02T05:17:34;2.50;;;2.30;;
12385;SDS011;6257;57.634;18.310;2023-07-02T05:20:01;3.50;;;2.33;;
12385;SDS011;6257;57.634;18.310;2023-07-02T05:22:31;2.37;;;2.10;;
12385;SDS011;6257;57.634;18.310;2023-07-02T05:24:58;2.40;;;2.17;;
12385;SDS011;6257;57.634;18.310;2023-07-02T05:27:25;4.23;;;2.07;;
12385;SDS011;6257;57.634;18.310;2023-07-02T05:29:52;3.50;;;1.90;;
12385;SDS011;6257;57.634;18.310;2023-07-02T05:32:19;3.30;;;2.13;;
12385;SDS011;6257;57.634;18.310;2023-07-02T05:34:46;2.27;;;1.90;;
12385;SDS011;6257;57.634;18.310;2023-07-02T05:37:13;2.33;;;1.73;;
12385;SDS011;6257;57.634;18.310;2023-07-02T05:39:41;1.90;;;1.80;;
12385;SDS011;6257;57.634;18.310;2023-07-02T05:42:08;1.87;;;1.70;;
12385;SDS011;6257;57.634;18.310;2023-07-02T05:44:35;3.27;;;1.80;;
12385;SDS011;6257;57.634;18.310;2023-07-02T05:47:03;2.90;;;1.80;;
12385;SDS011;6257;57.634;18.310;2023-07-02T05:49:30;2.30;;;1.97;;
12385;SDS011;6257;57.634;18.310;2023-07-02T05:51:57;2.00;;;1.80;;
12385;SDS011;6257;57.634;18.310;2023-07-02T05:54:24;3.37;;;1.83;;
12385;SDS011;6257;57.634;18.310;2023-07-02T05:56:52;3.47;;;1.80;;
12385;SDS011;6257;57.634;18.310;2023-07-02T05:59:19;2.37;;;1.60;;
12385;SDS011;6257;57.634;18.310;2023-07-02T06:01:46;2.20;;;1.70;;
12385;SDS011;6257;57.634;18.310;2023-07-02T06:04:13;1.97;;;1.70;;
12385;SDS011;6257;57.634;18.310;2023-07-02T06:06:40;4.20;;;2.13;;
12385;SDS011;6257;57.634;18.310;2023-07-02T06:09:08;2.00;;;1.60;;
12385;SDS011;6257;57.634;18.310;2023-07-02T06:11:35;3.07;;;2.00;;
12385;SDS011;6257;57.634;18.310;2023-07-02T06:14:04;2.37;;;1.80;;
12385;SDS011;6257;57.634;18.310;2023-07-02T06:16:32;1.67;;;1.50;;
12385;SDS011;6257;57.634;18.310;2023-07-02T06:18:59;2.10;;;1.77;;
12385;SDS011;6257;57.634;18.310;2023-07-02T06:21:26;2.60;;;1.63;;
12385;SDS011;6257;57.634;18.310;2023-07-02T06:23:54;2.77;;;1.97;;
12385;SDS011;6257;57.634;18.310;2023-07-02T06:26:23;3.47;;;1.97;;
12385;SDS011;6257;57.634;18.310;2023-07-02T06:28:50;3.17;;;2.10;;
12385;SDS011;6257;57.634;18.310;2023-07-02T06:31:21;2.10;;;1.90;;
12385;SDS011;6257;57.634;18.310;2023-07-02T06:33:48;2.23;;;2.03;;
12385;SDS011;6257;57.634;18.310;2023-07-02T06:36:15;2.63;;;1.63;;
12385;SDS011;6257;57.634;18.310;2023-07-02T06:38:42;2.40;;;1.80;;
12385;SDS011;6257;57.634;18.310;2023-07-02T06:41:10;2.03;;;1.80;;
12385;SDS011;6257;57.634;18.310;2023-07-02T06:43:37;2.00;;;1.60;;
12385;SDS011;6257;57.634;18.310;2023-07-02T06:46:04;3.20;;;1.87;;
12385;SDS011;6257;57.634;18.310;2023-07-02T06:48:32;2.97;;;1.77;;
12385;SDS011;6257;57.634;18.310;2023-07-02T06:50:59;1.90;;;1.53;;
12385;SDS011;6257;57.634;18.310;2023-07-02T06:53:26;4.17;;;1.70;;
12385;SDS011;6257;57.634;18.310;2023-07-02T06:55:53;3.00;;;1.97;;
12385;SDS011;6257;57.634;18.310;2023-07-02T06:58:20;2.57;;;1.80;;
12385;SDS011;6257;57.634;18.310;2023-07-02T07:00:47;2.37;;;1.60;;
12385;SDS011;6257;57.634;18.310;2023-07-02T07:03:15;5.20;;;1.90;;
12385;SDS011;6257;57.634;18.310;2023-07-02T07:05:44;2.90;;;2.00;;
12385;SDS011;6257;57.634;18.310;2023-07-02T07:08:11;2.57;;;1.70;;
12385;SDS011;6257;57.634;18.310;2023-07-02T07:10:38;3.23;;;1.80;;
12385;SDS011;6257;57.634;18.310;2023-07-02T07:13:06;2.10;;;1.87;;
12385;SDS011;6257;57.634;18.310;2023-07-02T07:15:33;5.23;;;1.83;;
12385;SDS011;6257;57.634;18.310;2023-07-02T07:18:01;3.77;;;1.73;;
12385;SDS011;6257;57.634;18.310;2023-07-02T07:20:28;3.03;;;1.80;;
12385;SDS011;6257;57.634;18.310;2023-07-02T07:22:57;2.40;;;1.90;;
12385;SDS011;6257;57.634;18.310;2023-07-02T07:25:24;2.63;;;2.10;;
12385;SDS011;6257;57.634;18.310;2023-07-02T07:27:51;2.67;;;2.00;;
12385;SDS011;6257;57.634;18.310;2023-07-02T07:30:19;3.33;;;2.00;;
12385;SDS011;6257;57.634;18.310;2023-07-02T07:32:48;3.93;;;2.10;;
12385;SDS011;6257;57.634;18.310;2023-07-02T07:35:16;3.37;;;2.20;;
12385;SDS011;6257;57.634;18.310;2023-07-02T07:37:43;4.10;;;2.33;;
12385;SDS011;6257;57.634;18.310;2023-07-02T07:40:12;2.70;;;2.00;;
12385;SDS011;6257;57.634;18.310;2023-07-02T07:42:40;3.73;;;2.27;;
12385;SDS011;6257;57.634;18.310;2023-07-02T07:45:08;2.63;;;2.20;;
12385;SDS011;6257;57.634;18.310;2023-07-02T07:47:36;3.87;;;2.27;;
12385;SDS011;6257;57.634;18.310;2023-07-02T07:50:03;3.63;;;2.10;;
12385;SDS011;6257;57.634;18.310;2023-07-02T07:52:35;2.43;;;2.03;;
12385;SDS011;6257;57.634;18.310;2023-07-02T07:55:03;3.80;;;1.90;;
12385;SDS011;6257;57.634;18.310;2023-07-02T07:57:32;4.47;;;2.30;;
12385;SDS011;6257;57.634;18.310;2023-07-02T08:00:00;4.27;;;1.80;;
12385;SDS011;6257;57.634;18.310;2023-07-02T08:02:29;3.67;;;1.70;;
12385;SDS011;6257;57.634;18.310;2023-07-02T08:04:56;3.80;;;1.83;;
12385;SDS011;6257;57.634;18.310;2023-07-02T08:07:23;5.50;;;1.60;;
12385;SDS011;6257;57.634;18.310;2023-07-02T08:09:50;2.40;;;1.27;;
12385;SDS011;6257;57.634;18.310;2023-07-02T08:12:17;2.33;;;1.30;;
12385;SDS011;6257;57.634;18.310;2023-07-02T08:14:46;4.17;;;1.50;;
12385;SDS011;6257;57.634;18.310;2023-07-02T08:17:13;3.40;;;1.70;;
12385;SDS011;6257;57.634;18.310;2023-07-02T08:19:40;2.50;;;1.57;;
12385;SDS011;6257;57.634;18.310;2023-07-02T08:22:07;2.30;;;1.80;;
12385;SDS011;6257;57.634;18.310;2023-07-02T08:24:34;3.37;;;1.57;;
12385;SDS011;6257;57.634;18.310;2023-07-02T08:27:01;4.33;;;1.90;;
12385;SDS011;6257;57.634;18.310;2023-07-02T08:29:28;1.70;;;1.60;;
12385;SDS011;6257;57.634;18.310;2023-07-02T08:31:57;2.70;;;1.57;;
12385;SDS011;6257;57.634;18.310;2023-07-02T08:34:24;3.50;;;1.80;;
12385;SDS011;6257;57.634;18.310;2023-07-02T08:36:51;5.03;;;1.80;;
12385;SDS011;6257;57.634;18.310;2023-07-02T08:39:18;3.03;;;1.83;;
12385;SDS011;6257;57.634;18.310;2023-07-02T08:41:45;3.17;;;1.83;;
12385;SDS011;6257;57.634;18.310;2023-07-02T08:44:13;3.90;;;1.83;;
12385;SDS011;6257;57.634;18.310;2023-07-02T08:46:41;2.40;;;1.60;;
12385;SDS011;6257;57.634;18.310;2023-07-02T08:49:10;4.90;;;2.00;;
12385;SDS011;6257;57.634;18.310;2023-07-02T08:51:38;3.33;;;1.73;;
12385;SDS011;6257;57.634;18.310;2023-07-02T08:54:05;4.03;;;2.00;;
12385;SDS011;6257;57.634;18.310;2023-07-02T08:56:32;3.60;;;1.60;;
12385;SDS011;6257;57.634;18.310;2023-07-02T08:58:59;5.83;;;1.80;;
12385;SDS011;6257;57.634;18.310;2023-07-02T09:01:26;3.03;;;2.00;;
12385;SDS011;6257;57.634;18.310;2023-07-02T09:03:58;4.30;;;1.90;;
12385;SDS011;6257;57.634;18.310;2023-07-02T09:06:27;3.17;;;1.80;;
12385;SDS011;6257;57.634;18.310;2023-07-02T09:09:03;2.87;;;1.50;;
12385;SDS011;6257;57.634;18.310;2023-07-02T09:11:31;2.33;;;1.67;;
12385;SDS011;6257;57.634;18.310;2023-07-02T09:13:58;4.17;;;1.83;;
12385;SDS011;6257;57.634;18.310;2023-07-02T09:16:27;2.00;;;1.33;;
12385;SDS011;6257;57.634;18.310;2023-07-02T09:18:56;4.60;;;2.20;;
12385;SDS011;6257;57.634;18.310;2023-07-02T09:21:25;2.73;;;1.60;;
12385;SDS011;6257;57.634;18.310;2023-07-02T09:23:55;5.33;;;1.87;;
12385;SDS011;6257;57.634;18.310;2023-07-02T09:26:22;4.33;;;1.70;;
12385;SDS011;6257;57.634;18.310;2023-07-02T09:28:50;2.53;;;1.40;;
12385;SDS011;6257;57.634;18.310;2023-07-02T09:31:26;3.93;;;1.70;;
12385;SDS011;6257;57.634;18.310;2023-07-02T09:34:00;4.97;;;2.30;;
12385;SDS011;6257;57.634;18.310;2023-07-02T09:36:28;3.50;;;1.50;;
12385;SDS011;6257;57.634;18.310;2023-07-02T09:38:56;5.77;;;1.70;;
12385;SDS011;6257;57.634;18.310;2023-07-02T09:41:23;5.33;;;1.90;;
12385;SDS011;6257;57.634;18.310;2023-07-02T09:43:50;5.70;;;1.77;;
12385;SDS011;6257;57.634;18.310;2023-07-02T09:46:18;4.20;;;1.60;;
12385;SDS011;6257;57.634;18.310;2023-07-02T09:48:45;4.35;;;1.30;;
12385;SDS011;6257;57.634;18.310;2023-07-02T09:51:12;3.63;;;1.30;;
12385;SDS011;6257;57.634;18.310;2023-07-02T09:53:39;2.90;;;1.40;;
12385;SDS011;6257;57.634;18.310;2023-07-02T09:56:08;3.37;;;1.40;;
12385;SDS011;6257;57.634;18.310;2023-07-02T09:58:36;3.47;;;1.40;;
12385;SDS011;6257;57.634;18.310;2023-07-02T10:01:03;4.80;;;1.60;;
12385;SDS011;6257;57.634;18.310;2023-07-02T10:03:30;3.67;;;1.40;;
12385;SDS011;6257;57.634;18.310;2023-07-02T10:06:04;7.20;;;1.97;;
12385;SDS011;6257;57.634;18.310;2023-07-02T10:08:32;3.70;;;1.43;;
12385;SDS011;6257;57.634;18.310;2023-07-02T10:11:10;3.47;;;1.30;;
12385;SDS011;6257;57.634;18.310;2023-07-02T10:13:39;4.63;;;1.40;;
12385;SDS011;6257;57.634;18.310;2023-07-02T10:16:06;4.57;;;1.77;;
12385;SDS011;6257;57.634;18.310;2023-07-02T10:18:33;3.53;;;1.30;;
12385;SDS011;6257;57.634;18.310;2023-07-02T10:21:12;3.07;;;1.33;;
12385;SDS011;6257;57.634;18.310;2023-07-02T10:23:40;4.80;;;1.20;;
12385;SDS011;6257;57.634;18.310;2023-07-02T10:26:13;2.83;;;1.50;;
12385;SDS011;6257;57.634;18.310;2023-07-02T10:28:42;2.50;;;1.43;;
12385;SDS011;6257;57.634;18.310;2023-07-02T10:31:19;2.53;;;1.40;;
12385;SDS011;6257;57.634;18.310;2023-07-02T10:33:46;4.60;;;1.40;;
12385;SDS011;6257;57.634;18.310;2023-07-02T10:36:20;4.10;;;1.70;;
12385;SDS011;6257;57.634;18.310;2023-07-02T10:38:48;2.00;;;0.97;;
12385;SDS011;6257;57.634;18.310;2023-07-02T10:41:27;3.10;;;1.23;;
12385;SDS011;6257;57.634;18.310;2023-07-02T10:44:04;2.13;;;1.20;;
12385;SDS011;6257;57.634;18.310;2023-07-02T10:46:33;2.47;;;1.20;;
12385;SDS011;6257;57.634;18.310;2023-07-02T10:49:00;2.83;;;1.30;;
12385;SDS011;6257;57.634;18.310;2023-07-02T10:51:28;2.50;;;1.00;;
12385;SDS011;6257;57.634;18.310;2023-07-02T10:53:57;3.23;;;1.20;;
12385;SDS011;6257;57.634;18.310;2023-07-02T10:56:27;2.73;;;1.30;;
12385;SDS011;6257;57.634;18.310;2023-07-02T10:58:54;3.13;;;1.40;;
12385;SDS011;6257;57.634;18.310;2023-07-02T11:01:22;2.20;;;1.10;;
12385;SDS011;6257;57.634;18.310;2023-07-02T11:03:55;3.10;;;1.50;;
12385;SDS011;6257;57.634;18.310;2023-07-02T11:06:26;4.70;;;1.20;;
12385;SDS011;6257;57.634;18.310;2023-07-02T11:08:53;4.57;;;1.50;;
12385;SDS011;6257;57.634;18.310;2023-07-02T11:11:21;3.97;;;1.40;;
12385;SDS011;6257;57.634;18.310;2023-07-02T11:13:50;5.00;;;1.60;;
12385;SDS011;6257;57.634;18.310;2023-07-02T11:16:19;17.30;;;3.53;;
12385;SDS011;6257;57.634;18.310;2023-07-02T11:18:51;14.60;;;3.60;;
12385;SDS011;6257;57.634;18.310;2023-07-02T11:21:19;13.13;;;3.60;;
12385;SDS011;6257;57.634;18.310;2023-07-02T11:23:47;13.20;;;3.33;;
12385;SDS011;6257;57.634;18.310;2023-07-02T11:26:14;12.57;;;3.13;;
12385;SDS011;6257;57.634;18.310;2023-07-02T11:28:47;9.80;;;2.80;;
12385;SDS011;6257;57.634;18.310;2023-07-02T11:31:25;9.73;;;3.13;;
12385;SDS011;6257;57.634;18.310;2023-07-02T11:33:53;14.07;;;3.20;;
12385;SDS011;6257;57.634;18.310;2023-07-02T11:36:21;12.03;;;3.10;;
12385;SDS011;6257;57.634;18.310;2023-07-02T11:38:51;10.57;;;3.13;;
12385;SDS011;6257;57.634;18.310;2023-07-02T11:41:18;9.97;;;3.60;;
12385;SDS011;6257;57.634;18.310;2023-07-02T11:43:46;9.87;;;3.23;;
12385;SDS011;6257;57.634;18.310;2023-07-02T11:46:15;11.10;;;3.30;;
12385;SDS011;6257;57.634;18.310;2023-07-02T11:48:42;10.03;;;2.57;;
12385;SDS011;6257;57.634;18.310;2023-07-02T11:51:09;9.43;;;2.63;;
12385;SDS011;6257;57.634;18.310;2023-07-02T11:53:36;4.43;;;1.50;;
12385;SDS011;6257;57.634;18.310;2023-07-02T11:56:04;4.03;;;1.60;;
12385;SDS011;6257;57.634;18.310;2023-07-02T11:58:31;2.90;;;1.60;;
12385;SDS011;6257;57.634;18.310;2023-07-02T12:00:58;3.13;;;1.23;;
12385;SDS011;6257;57.634;18.310;2023-07-02T12:03:26;4.67;;;1.50;;
12385;SDS011;6257;57.634;18.310;2023-07-02T12:05:54;2.73;;;1.70;;
12385;SDS011;6257;57.634;18.310;2023-07-02T12:08:22;3.37;;;1.63;;
12385;SDS011;6257;57.634;18.310;2023-07-02T12:10:49;3.57;;;1.63;;
12385;SDS011;6257;57.634;18.310;2023-07-02T12:13:16;3.77;;;1.77;;
12385;SDS011;6257;57.634;18.310;2023-07-02T12:15:46;2.63;;;1.70;;
12385;SDS011;6257;57.634;18.310;2023-07-02T12:18:14;3.70;;;1.67;;
12385;SDS011;6257;57.634;18.310;2023-07-02T12:20:43;3.50;;;1.73;;
12385;SDS011;6257;57.634;18.310;2023-07-02T12:23:10;6.97;;;1.83;;
12385;SDS011;6257;57.634;18.310;2023-07-02T12:25:37;3.23;;;2.10;;
12385;SDS011;6257;57.634;18.310;2023-07-02T12:28:04;4.83;;;1.70;;
12385;SDS011;6257;57.634;18.310;2023-07-02T12:30:32;3.03;;;1.60;;
12385;SDS011;6257;57.634;18.310;2023-07-02T12:32:59;3.17;;;2.03;;
12385;SDS011;6257;57.634;18.310;2023-07-02T12:35:26;2.87;;;1.50;;
12385;SDS011;6257;57.634;18.310;2023-07-02T12:37:55;3.60;;;1.80;;
12385;SDS011;6257;57.634;18.310;2023-07-02T12:40:22;4.83;;;2.23;;
12385;SDS011;6257;57.634;18.310;2023-07-02T12:42:49;6.80;;;2.03;;
12385;SDS011;6257;57.634;18.310;2023-07-02T12:45:16;4.00;;;1.80;;
12385;SDS011;6257;57.634;18.310;2023-07-02T12:47:43;2.77;;;1.50;;
12385;SDS011;6257;57.634;18.310;2023-07-02T12:50:10;2.97;;;1.60;;
12385;SDS011;6257;57.634;18.310;2023-07-02T12:52:37;6.43;;;1.83;;
12385;SDS011;6257;57.634;18.310;2023-07-02T12:55:06;4.20;;;2.10;;
12385;SDS011;6257;57.634;18.310;2023-07-02T12:57:34;3.57;;;1.90;;
12385;SDS011;6257;57.634;18.310;2023-07-02T13:00:01;3.80;;;2.00;;
12385;SDS011;6257;57.634;18.310;2023-07-02T13:02:30;2.73;;;1.90;;
12385;SDS011;6257;57.634;18.310;2023-07-02T13:04:57;3.70;;;1.87;;
12385;SDS011;6257;57.634;18.310;2023-07-02T13:07:25;2.70;;;2.00;;
12385;SDS011;6257;57.634;18.310;2023-07-02T13:09:53;6.00;;;1.70;;
12385;SDS011;6257;57.634;18.310;2023-07-02T13:12:21;2.90;;;1.87;;
12385;SDS011;6257;57.634;18.310;2023-07-02T13:14:48;4.33;;;2.13;;
12385;SDS011;6257;57.634;18.310;2023-07-02T13:17:15;4.57;;;2.50;;
12385;SDS011;6257;57.634;18.310;2023-07-02T13:19:42;2.60;;;1.87;;
12385;SDS011;6257;57.634;18.310;2023-07-02T13:22:09;5.07;;;2.37;;
12385;SDS011;6257;57.634;18.310;2023-07-02T13:24:36;5.10;;;2.30;;
12385;SDS011;6257;57.634;18.310;2023-07-02T13:27:06;3.67;;;2.10;;
12385;SDS011;6257;57.634;18.310;2023-07-02T13:29:38;3.87;;;2.10;;
12385;SDS011;6257;57.634;18.310;2023-07-02T13:32:06;3.47;;;1.97;;
12385;SDS011;6257;57.634;18.310;2023-07-02T13:34:34;3.50;;;2.17;;
12385;SDS011;6257;57.634;18.310;2023-07-02T13:37:01;5.37;;;2.10;;
12385;SDS011;6257;57.634;18.310;2023-07-02T13:39:28;4.70;;;2.10;;
12385;SDS011;6257;57.634;18.310;2023-07-02T13:41:56;4.13;;;2.27;;
12385;SDS011;6257;57.634;18.310;2023-07-02T13:44:23;4.80;;;2.20;;
12385;SDS011;6257;57.634;18.310;2023-07-02T13:46:51;3.97;;;1.97;;
12385;SDS011;6257;57.634;18.310;2023-07-02T13:49:19;4.53;;;1.93;;
12385;SDS011;6257;57.634;18.310;2023-07-02T13:51:47;4.40;;;2.10;;
12385;SDS011;6257;57.634;18.310;2023-07-02T13:54:15;3.83;;;2.13;;
12385;SDS011;6257;57.634;18.310;2023-07-02T13:56:44;3.70;;;2.00;;
12385;SDS011;6257;57.634;18.310;2023-07-02T13:59:13;4.00;;;1.73;;
12385;SDS011;6257;57.634;18.310;2023-07-02T14:01:41;4.67;;;1.80;;
12385;SDS011;6257;57.634;18.310;2023-07-02T14:04:08;2.90;;;1.60;;
12385;SDS011;6257;57.634;18.310;2023-07-02T14:06:36;6.20;;;2.03;;
12385;SDS011;6257;57.634;18.310;2023-07-02T14:09:04;4.27;;;2.17;;
12385;SDS011;6257;57.634;18.310;2023-07-02T14:11:35;6.00;;;2.13;;
12385;SDS011;6257;57.634;18.310;2023-07-02T14:14:04;4.30;;;2.13;;
12385;SDS011;6257;57.634;18.310;2023-07-02T14:16:33;7.00;;;2.20;;
12385;SDS011;6257;57.634;18.310;2023-07-02T14:19:00;4.77;;;1.97;;
12385;SDS011;6257;57.634;18.310;2023-07-02T14:21:27;8.10;;;2.17;;
12385;SDS011;6257;57.634;18.310;2023-07-02T14:23:54;3.93;;;2.03;;
12385;SDS011;6257;57.634;18.310;2023-07-02T14:26:21;5.37;;;2.30;;
12385;SDS011;6257;57.634;18.310;2023-07-02T14:28:48;3.60;;;2.30;;
12385;SDS011;6257;57.634;18.310;2023-07-02T14:31:15;5.30;;;2.00;;
12385;SDS011;6257;57.634;18.310;2023-07-02T14:33:44;2.87;;;2.00;;
12385;SDS011;6257;57.634;18.310;2023-07-02T14:36:11;4.90;;;2.40;;
12385;SDS011;6257;57.634;18.310;2023-07-02T14:38:38;4.37;;;1.97;;
12385;SDS011;6257;57.634;18.310;2023-07-02T14:41:05;3.27;;;2.20;;
12385;SDS011;6257;57.634;18.310;2023-07-02T14:43:32;4.27;;;2.37;;
12385;SDS011;6257;57.634;18.310;2023-07-02T14:46:00;3.90;;;2.03;;
12385;SDS011;6257;57.634;18.310;2023-07-02T14:48:29;4.30;;;2.13;;
12385;SDS011;6257;57.634;18.310;2023-07-02T14:50:58;5.03;;;2.10;;
12385;SDS011;6257;57.634;18.310;2023-07-02T14:53:26;3.70;;;2.40;;